MET'MAP v2.0
soon released !

Expected late october,
this new version will be
more efficient, smarter,
and hosted on a brand new
server x3 powerfull...
...and still free !


Not compatible ?
Try the mobile version !

LOG IN : | Subscribe | Disclaimer | Who is Orbifly ? |
ICAO code :

TAF - EGVN RAF Brize Norton - 27 Nov 2020 09:06 UTC
Data Sources :     NOAA   


- Airport Elevation : 288 ft
- IATA code : BZZ
- No reported NOTAMs.


EGVN - RAF Brize Norton

Latest METAR recorded : 2015/08/11 07:50 EGVN 110750Z 05002KT CAVOK 13/11 Q1019 BLU NOSIG
TAF TAF EGVN
Valid from the 27 at 06:00 until the 28 at 06:00 UTC


270439Z 2706/2806 VRB05KT 0300 FZFG VV///
PROB40
TEMPO 2706/2711 2000 BR BKN003
BECMG 2711/2714 4000 BR BKN008
PROB30 2714/2722 8000 HZ BKN025
PROB40
TEMPO 2723/2802 BKN004
PROB40
TEMPO 2802/2806 1200 MIFG BKN002

Source NOAA


MET'MAP, your aeronautical weather chart ! - Copyright ORBIFLY December 2007

Programming & Development : Alexandra Zaïnal
Co-Developer : Marc-Olivier Méhu
Technical & hardware support : Manuel Goepfert
Concept & Financing : Baudouin d'Aumeries